Time;durP1;ratioP1;P1;durP2;ratioP2;P2;SDS_P1;SDS_P2;PMS_P1;PMS_P2;Temp;Humidity;BMP_temperature;BMP_pressure;BME280_temperature;BME280_humidity;BME280_pressure;Samples;Min_cycle;Max_cycle;Signal;HPM_P1;HPM_P2
2021/04/20 00:02:17;;;;;;;9.17;5.17;;;11.40;99.90;;;;;;5069752;28;20438;-49
2021/04/20 00:04:44;;;;;;;7.57;5.17;;;11.00;99.60;;;;;;5069787;28;20514;-50
2021/04/20 00:07:11;;;;;;;9.73;4.90;;;11.70;99.90;;;;;;5071182;28;20916;-50
2021/04/20 00:09:37;;;;;;;16.83;6.07;;;11.40;99.90;;;;;;5071162;28;20983;-50
2021/04/20 00:12:04;;;;;;;10.23;4.60;;;11.40;99.90;;;;;;5070944;28;20431;-49
2021/04/20 00:14:30;;;;;;;9.93;5.20;;;11.40;99.90;;;;;;5070706;28;20882;-48
2021/04/20 00:16:56;;;;;;;10.87;5.10;;;11.30;99.90;;;;;;5070977;28;20825;-49
2021/04/20 00:19:22;;;;;;;11.77;4.80;;;11.40;99.90;;;;;;5071117;28;20497;-48
2021/04/20 00:21:49;;;;;;;11.13;5.27;;;11.20;99.90;;;;;;5071017;28;20426;-49
2021/04/20 00:24:16;;;;;;;8.80;5.37;;;11.30;99.90;;;;;;5070503;28;20820;-48
2021/04/20 00:26:42;;;;;;;31.13;5.40;;;11.00;99.90;;;;;;5071027;28;20441;-49
2021/04/20 00:29:09;;;;;;;8.00;5.20;;;11.40;99.90;;;;;;5071114;28;20466;-49
2021/04/20 00:31:35;;;;;;;11.57;5.10;;;11.20;99.90;;;;;;5070979;28;20452;-49
2021/04/20 00:34:01;;;;;;;10.90;5.47;;;11.00;99.90;;;;;;5070526;28;20530;-49
2021/04/20 00:36:27;;;;;;;7.33;4.60;;;10.40;99.90;;;;;;5070661;28;20473;-49
2021/04/20 00:38:54;;;;;;;10.50;4.73;;;11.00;99.90;;;;;;5070690;28;20539;-48
2021/04/20 00:41:23;;;;;;;14.17;5.80;;;11.10;99.90;;;;;;5069403;28;20788;-48
2021/04/20 00:43:49;;;;;;;13.13;5.97;;;11.20;99.90;;;;;;5070282;28;20437;-49
2021/04/20 00:46:18;;;;;;;9.00;4.53;;;10.90;99.90;;;;;;5071004;28;20551;-49
2021/04/20 00:48:45;;;;;;;8.50;5.53;;;10.90;99.90;;;;;;5070647;28;20521;-49
2021/04/20 00:51:12;;;;;;;11.13;5.27;;;11.10;99.90;;;;;;5070940;28;20434;-49
2021/04/20 00:53:39;;;;;;;7.83;4.90;;;10.80;99.90;;;;;;5070204;28;20434;-48
2021/04/20 00:56:06;;;;;;;11.37;6.13;;;10.90;99.90;;;;;;5070998;28;20976;-48
2021/04/20 00:58:33;;;;;;;9.23;4.83;;;10.90;99.90;;;;;;5074693;28;20536;-48
2021/04/20 01:01:00;;;;;;;10.97;5.43;;;11.00;99.90;;;;;;5074262;28;20513;-48
2021/04/20 01:03:27;;;;;;;7.27;5.23;;;11.00;99.90;;;;;;5074214;28;20425;-48
2021/04/20 01:05:54;;;;;;;7.23;5.10;;;10.70;99.90;;;;;;5074062;28;20628;-48
2021/04/20 01:08:25;;;;;;;12.00;5.90;;;10.90;99.90;;;;;;5074153;28;20509;-49
2021/04/20 01:10:54;;;;;;;9.30;5.67;;;10.50;99.90;;;;;;5074169;28;20441;-48
2021/04/20 01:13:22;;;;;;;9.53;5.83;;;10.30;99.90;;;;;;5073869;28;20473;-49
2021/04/20 01:15:51;;;;;;;11.00;5.37;;;10.50;99.90;;;;;;5073986;28;20445;-49
2021/04/20 01:18:19;;;;;;;9.77;5.90;;;10.70;99.90;;;;;;5074077;28;20540;-48
2021/04/20 01:20:47;;;;;;;14.73;6.13;;;10.60;99.90;;;;;;5073856;28;20490;-49
2021/04/20 01:23:15;;;;;;;10.27;5.53;;;10.40;99.90;;;;;;5073759;28;20956;-50
2021/04/20 01:25:42;;;;;;;7.43;5.27;;;10.70;99.90;;;;;;5073722;28;20460;-47
2021/04/20 01:28:09;;;;;;;8.27;5.60;;;10.50;99.90;;;;;;5073823;28;20437;-48
2021/04/20 01:30:36;;;;;;;15.07;5.93;;;10.60;99.90;;;;;;5073774;28;20529;-49
2021/04/20 01:33:06;;;;;;;13.73;5.50;;;10.50;99.90;;;;;;5073349;28;20461;-49
2021/04/20 01:35:33;;;;;;;13.30;7.03;;;10.60;99.90;;;;;;5074121;28;20502;-49
2021/04/20 01:38:02;;;;;;;8.63;5.47;;;10.20;99.90;;;;;;5073701;28;21185;-48
2021/04/20 01:40:28;;;;;;;9.47;5.90;;;10.50;99.90;;;;;;5073642;28;21012;-49
2021/04/20 01:42:55;;;;;;;15.10;6.63;;;10.40;99.90;;;;;;5073342;28;20433;-48
2021/04/20 01:45:22;;;;;;;9.30;6.40;;;10.00;99.90;;;;;;5073659;28;20480;-50
2021/04/20 01:47:49;;;;;;;9.37;4.67;;;10.40;99.90;;;;;;5073798;28;20575;-49
2021/04/20 01:50:16;;;;;;;8.77;6.33;;;10.20;99.90;;;;;;5073808;28;20422;-50
2021/04/20 01:52:43;;;;;;;8.50;5.93;;;10.40;99.90;;;;;;5073498;28;20453;-49
2021/04/20 01:55:11;;;;;;;10.03;6.37;;;10.40;99.90;;;;;;5073872;28;20505;-48
2021/04/20 01:57:38;;;;;;;11.20;6.40;;;10.30;99.90;;;;;;5073846;28;20456;-48
2021/04/20 02:00:09;;;;;;;11.73;5.73;;;10.20;99.90;;;;;;5073684;28;20879;-48
2021/04/20 02:02:39;;;;;;;11.53;6.10;;;10.40;99.90;;;;;;5073580;28;20394;-49
2021/04/20 02:05:07;;;;;;;12.03;5.57;;;10.10;99.90;;;;;;5073296;28;20529;-49
2021/04/20 02:07:33;;;;;;;11.67;5.77;;;10.20;99.90;;;;;;5072332;28;20521;-49
2021/04/20 02:10:00;;;;;;;12.27;8.40;;;9.70;99.90;;;;;;5073058;28;20495;-50
2021/04/20 02:12:27;;;;;;;12.13;7.57;;;10.20;99.90;;;;;;5072937;28;20429;-49
2021/04/20 02:14:53;;;;;;;17.40;8.87;;;10.10;99.90;;;;;;5072884;28;20544;-50
2021/04/20 02:17:22;;;;;;;12.33;6.70;;;9.60;99.90;;;;;;5073048;28;20591;-49
2021/04/20 02:19:48;;;;;;;10.33;7.00;;;10.10;99.90;;;;;;5073128;28;20515;-48
2021/04/20 02:22:15;;;;;;;14.57;8.27;;;10.00;99.90;;;;;;5072966;28;20426;-50
2021/04/20 02:24:41;;;;;;;10.63;6.40;;;10.00;99.90;;;;;;5072910;28;20452;-50
2021/04/20 02:27:08;;;;;;;25.17;8.60;;;9.80;99.90;;;;;;5073028;28;20952;-49
2021/04/20 02:29:34;;;;;;;9.70;6.87;;;9.80;99.90;;;;;;5072911;28;20939;-48
2021/04/20 02:32:01;;;;;;;15.27;8.17;;;9.80;99.90;;;;;;5073038;28;20439;-47
2021/04/20 02:34:28;;;;;;;14.00;7.60;;;9.70;99.90;;;;;;5073057;28;20505;-49
2021/04/20 02:36:56;;;;;;;17.00;9.33;;;9.60;99.90;;;;;;5072734;28;20434;-48
2021/04/20 02:39:23;;;;;;;13.93;7.17;;;9.70;99.90;;;;;;5072867;28;20469;-49
2021/04/20 02:41:50;;;;;;;11.40;6.93;;;9.70;99.90;;;;;;5072965;28;20422;-49
2021/04/20 02:44:17;;;;;;;16.53;6.60;;;9.80;99.90;;;;;;5072196;28;20433;-48
2021/04/20 02:46:44;;;;;;;10.63;6.27;;;9.10;99.90;;;;;;5071763;28;21146;-49
2021/04/20 02:49:12;;;;;;;9.73;5.73;;;9.70;99.90;;;;;;5069952;28;20420;-49
2021/04/20 02:51:40;;;;;;;12.53;6.20;;;9.30;99.90;;;;;;5072672;28;20983;-49
2021/04/20 02:54:07;;;;;;;8.90;6.40;;;9.50;99.90;;;;;;5072028;28;20463;-49
2021/04/20 02:56:35;;;;;;;11.57;6.53;;;9.50;99.90;;;;;;5072188;28;20570;-49
2021/04/20 02:59:04;;;;;;;13.23;7.50;;;9.40;99.90;;;;;;5070698;28;20461;-47
2021/04/20 03:01:31;;;;;;;8.87;6.20;;;9.40;99.90;;;;;;5072002;28;20954;-49
2021/04/20 03:03:58;;;;;;;11.40;7.03;;;9.30;99.90;;;;;;5071754;28;20479;-49
2021/04/20 03:06:25;;;;;;;11.60;6.97;;;9.40;99.90;;;;;;5072044;28;20975;-49
2021/04/20 03:08:52;;;;;;;11.67;5.93;;;9.30;99.90;;;;;;5071939;28;20468;-49
2021/04/20 03:11:23;;;;;;;13.80;6.90;;;9.40;99.90;;;;;;5070385;28;20573;-48
2021/04/20 03:13:50;;;;;;;13.93;7.10;;;9.20;99.90;;;;;;5071553;28;20471;-49
2021/04/20 03:16:17;;;;;;;21.60;8.57;;;9.30;99.90;;;;;;5071690;28;20507;-49
2021/04/20 03:18:43;;;;;;;16.33;8.10;;;9.10;99.90;;;;;;5071475;28;20529;-49
2021/04/20 03:21:14;;;;;;;12.90;8.80;;;9.20;99.90;;;;;;5071713;28;20482;-49
2021/04/20 03:23:42;;;;;;;14.13;8.47;;;9.10;99.90;;;;;;5071182;28;20433;-48
2021/04/20 03:26:31;;;;;;;16.70;9.57;;;9.10;99.90;;;;;;5071547;28;20504;-49
2021/04/20 03:28:59;;;;;;;19.90;11.40;;;9.00;99.90;;;;;;5071604;28;20976;-48
2021/04/20 03:31:26;;;;;;;26.23;11.00;;;8.80;99.90;;;;;;5071430;28;20471;-49
2021/04/20 03:33:56;;;;;;;20.23;9.73;;;8.40;99.90;;;;;;5071086;28;20433;-49
2021/04/20 03:36:26;;;;;;;22.90;10.90;;;9.30;99.90;;;;;;5071160;28;20427;-49
2021/04/20 03:38:55;;;;;;;15.27;9.03;;;8.70;99.90;;;;;;5070009;28;20782;-48
2021/04/20 03:41:26;;;;;;;20.60;9.37;;;9.10;99.90;;;;;;5071031;28;20492;-50
2021/04/20 03:43:57;;;;;;;11.87;8.53;;;9.10;99.90;;;;;;5070716;28;20524;-49
2021/04/20 03:46:28;;;;;;;21.27;8.10;;;8.80;99.90;;;;;;5071134;28;20576;-49
2021/04/20 03:48:58;;;;;;;11.80;8.40;;;8.20;99.90;;;;;;5069694;28;20457;-50
2021/04/20 03:51:29;;;;;;;11.63;8.17;;;8.90;99.90;;;;;;5070920;28;20920;-49
2021/04/20 03:54:03;;;;;;;13.90;8.20;;;8.80;99.90;;;;;;5070542;28;20938;-49
2021/04/20 03:56:32;;;;;;;14.20;7.90;;;8.80;99.90;;;;;;5070893;28;20435;-48
2021/04/20 03:59:01;;;;;;;14.77;7.97;;;8.80;99.90;;;;;;5070581;28;20416;-48
2021/04/20 04:01:29;;;;;;;12.07;6.70;;;8.60;99.90;;;;;;5069510;28;20745;-49
2021/04/20 04:03:57;;;;;;;14.80;8.73;;;8.50;99.90;;;;;;5070302;28;20407;-49
2021/04/20 04:06:23;;;;;;;20.10;9.53;;;8.60;99.90;;;;;;5070678;28;20462;-49
2021/04/20 04:08:53;;;;;;;16.30;7.37;;;8.90;99.90;;;;;;5071107;28;20537;-47
2021/04/20 04:11:20;;;;;;;12.83;8.30;;;8.80;99.90;;;;;;5071284;28;20428;-48
2021/04/20 04:13:49;;;;;;;16.20;8.10;;;8.60;99.90;;;;;;5070270;28;20448;-49
2021/04/20 04:16:18;;;;;;;13.17;9.10;;;8.50;99.90;;;;;;5070793;28;20464;-49
2021/04/20 04:18:51;;;;;;;14.47;8.73;;;8.80;99.90;;;;;;5070630;28;20437;-49
2021/04/20 04:21:34;;;;;;;12.73;7.27;;;8.50;99.90;;;;;;5070735;28;20599;-47
2021/04/20 04:24:05;;;;;;;11.87;7.67;;;8.50;99.90;;;;;;5070351;28;20956;-48
2021/04/20 04:26:36;;;;;;;15.77;8.03;;;8.40;99.90;;;;;;5070570;28;20867;-48
2021/04/20 04:29:04;;;;;;;18.93;8.93;;;8.50;99.90;;;;;;5070457;28;20436;-51
2021/04/20 04:31:33;;;;;;;16.17;8.77;;;8.10;99.90;;;;;;5069438;28;20506;-50
2021/04/20 04:34:00;;;;;;;14.50;8.60;;;8.50;99.90;;;;;;5069931;28;20456;-49
2021/04/20 04:36:27;;;;;;;10.50;8.43;;;8.30;99.90;;;;;;5070122;28;20536;-49
2021/04/20 04:38:54;;;;;;;20.57;9.53;;;8.20;99.90;;;;;;5070412;28;20484;-50
2021/04/20 04:41:21;;;;;;;14.77;8.33;;;8.30;99.90;;;;;;5070053;28;20476;-49
2021/04/20 04:43:49;;;;;;;18.93;8.90;;;8.10;99.90;;;;;;5070013;28;20402;-50
2021/04/20 04:46:16;;;;;;;16.07;9.13;;;8.50;99.90;;;;;;5069913;28;20591;-49
2021/04/20 04:48:43;;;;;;;16.13;9.13;;;8.10;99.90;;;;;;5070277;28;20435;-50
2021/04/20 04:51:10;;;;;;;16.23;7.70;;;8.20;99.90;;;;;;5070191;28;20430;-50
2021/04/20 04:53:39;;;;;;;10.70;8.30;;;8.20;99.90;;;;;;5070128;28;20501;-49
2021/04/20 04:56:06;;;;;;;18.10;9.70;;;8.00;99.90;;;;;;5095427;22;20514;-47
2021/04/20 04:58:36;;;;;;;15.43;8.00;;;8.30;99.90;;;;;;5070857;28;20436;-46
2021/04/20 05:01:03;;;;;;;14.67;8.23;;;8.10;99.90;;;;;;5070590;28;20480;-47
2021/04/20 05:03:31;;;;;;;17.30;9.13;;;8.10;99.90;;;;;;5070253;28;20460;-46
2021/04/20 05:05:59;;;;;;;13.20;7.90;;;8.20;99.90;;;;;;5070301;28;21045;-46
2021/04/20 05:08:26;;;;;;;15.83;9.20;;;8.00;99.90;;;;;;5070187;28;20526;-46
2021/04/20 05:10:53;;;;;;;14.33;8.60;;;8.30;99.90;;;;;;5070155;28;20536;-46
2021/04/20 05:13:19;;;;;;;15.33;8.80;;;8.30;99.90;;;;;;5068864;28;20445;-46
2021/04/20 05:15:46;;;;;;;20.73;10.43;;;8.20;99.90;;;;;;5070236;28;20523;-47
2021/04/20 05:18:13;;;;;;;16.53;8.80;;;8.10;99.90;;;;;;5069902;28;20776;-47
2021/04/20 05:20:43;;;;;;;14.13;8.80;;;8.20;99.90;;;;;;5070761;28;20859;-47
2021/04/20 05:23:09;;;;;;;13.93;9.70;;;8.20;99.90;;;;;;5070006;28;20431;-47
2021/04/20 05:25:36;;;;;;;19.50;8.40;;;8.30;99.90;;;;;;5069775;28;20452;-46
2021/04/20 05:28:03;;;;;;;12.10;7.67;;;8.50;99.90;;;;;;5068691;28;20464;-46
2021/04/20 05:30:29;;;;;;;12.50;8.93;;;8.50;99.90;;;;;;5070059;28;20407;-47
2021/04/20 05:32:58;;;;;;;13.30;8.60;;;8.70;99.90;;;;;;5069776;28;20526;-46
2021/04/20 05:35:24;;;;;;;22.77;10.07;;;8.10;99.90;;;;;;5070622;28;20439;-46
2021/04/20 05:37:52;;;;;;;13.13;8.60;;;8.50;99.90;;;;;;5070175;28;20441;-47
2021/04/20 05:40:21;;;;;;;15.70;7.43;;;8.80;99.90;;;;;;5069670;28;20472;-47
2021/04/20 05:42:47;;;;;;;12.70;9.00;;;9.00;99.90;;;;;;5071409;28;20432;-46
2021/04/20 05:45:16;;;;;;;12.00;8.20;;;9.00;99.90;;;;;;5077915;28;20449;-47
2021/04/20 05:47:43;;;;;;;15.93;9.20;;;9.00;99.90;;;;;;5077775;28;20974;-49
2021/04/20 05:50:12;;;;;;;14.27;8.70;;;9.30;99.90;;;;;;5075670;28;20493;-47
2021/04/20 05:52:39;;;;;;;17.07;9.20;;;9.10;99.90;;;;;;5073176;28;20482;-47
2021/04/20 05:55:08;;;;;;;15.07;9.47;;;9.30;99.90;;;;;;5073754;28;20468;-48
2021/04/20 05:57:35;;;;;;;16.20;8.67;;;9.30;99.90;;;;;;5073361;28;20434;-46
2021/04/20 06:00:05;;;;;;;16.60;8.63;;;9.40;99.90;;;;;;5071306;28;20473;-47
2021/04/20 06:02:39;;;;;;;18.70;9.50;;;9.60;99.90;;;;;;5072816;28;20417;-47
2021/04/20 06:05:09;;;;;;;16.00;8.57;;;9.50;99.90;;;;;;5073015;28;20470;-47
2021/04/20 06:07:38;;;;;;;13.50;8.87;;;9.20;99.90;;;;;;5074514;28;20483;-47
2021/04/20 06:10:08;;;;;;;14.53;9.20;;;9.60;99.90;;;;;;5073696;28;20469;-47
2021/04/20 06:12:35;;;;;;;21.50;10.77;;;9.50;99.90;;;;;;5073040;28;20930;-47
2021/04/20 06:15:01;;;;;;;12.73;9.07;;;10.10;99.90;;;;;;5073598;28;20460;-48
2021/04/20 06:17:28;;;;;;;13.20;8.90;;;9.80;99.90;;;;;;5073590;28;20510;-47
2021/04/20 06:19:55;;;;;;;16.20;9.30;;;10.00;99.90;;;;;;5073120;28;20811;-47
2021/04/20 06:22:21;;;;;;;15.97;10.53;;;10.20;99.90;;;;;;5072525;28;20425;-47
2021/04/20 06:24:48;;;;;;;16.37;9.60;;;10.60;99.90;;;;;;5073106;28;20445;-47
2021/04/20 06:27:15;;;;;;;20.73;9.57;;;10.20;99.90;;;;;;5072650;28;20426;-47
2021/04/20 06:29:42;;;;;;;22.17;10.03;;;10.40;99.90;;;;;;5071311;28;20446;-47
2021/04/20 06:32:10;;;;;;;12.70;8.80;;;10.90;99.90;;;;;;5072004;28;20442;-46
2021/04/20 06:34:37;;;;;;;16.20;9.47;;;10.50;99.90;;;;;;5072836;28;20416;-47
2021/04/20 06:37:06;;;;;;;16.80;10.10;;;10.40;99.90;;;;;;5073194;28;20433;-47
2021/04/20 06:39:33;;;;;;;10.10;8.10;;;10.10;99.90;;;;;;5072550;28;20422;-47
2021/04/20 06:42:00;;;;;;;21.30;9.20;;;10.40;99.90;;;;;;5072696;28;20491;-48
2021/04/20 06:44:34;;;;;;;13.40;9.53;;;10.40;99.90;;;;;;5070840;28;20803;-48
2021/04/20 06:47:06;;;;;;;15.70;11.70;;;10.40;99.90;;;;;;5072991;28;20510;-46
2021/04/20 06:49:40;;;;;;;16.03;10.47;;;10.30;99.90;;;;;;5072512;28;20937;-47
2021/04/20 06:52:13;;;;;;;21.57;10.70;;;10.70;99.90;;;;;;5072101;28;20943;-47
2021/04/20 06:54:43;;;;;;;20.73;10.00;;;10.50;99.90;;;;;;5071287;28;20434;-48
2021/04/20 06:57:13;;;;;;;18.57;10.37;;;10.50;99.90;;;;;;5072259;28;20441;-48
2021/04/20 06:59:48;;;;;;;13.40;8.60;;;10.70;99.90;;;;;;5070713;28;20465;-47
2021/04/20 07:02:26;;;;;;;17.20;9.43;;;10.80;99.90;;;;;;5070641;28;20441;-47
2021/04/20 07:04:58;;;;;;;17.53;9.53;;;10.60;99.90;;;;;;5072639;28;20818;-47
2021/04/20 07:07:39;;;;;;;16.43;11.37;;;10.80;99.90;;;;;;5072796;28;20433;-47
2021/04/20 07:10:12;;;;;;;13.60;10.70;;;10.90;99.90;;;;;;5072566;28;20765;-48
2021/04/20 07:12:40;;;;;;;19.00;10.67;;;10.80;99.90;;;;;;5071425;28;20464;-48
2021/04/20 07:15:11;;;;;;;25.50;10.13;;;10.90;99.90;;;;;;5072813;28;20973;-47
2021/04/20 07:17:58;;;;;;;17.47;9.93;;;11.00;99.90;;;;;;5072170;28;20860;-47
2021/04/20 07:20:33;;;;;;;18.10;10.00;;;11.00;99.90;;;;;;5071869;28;20469;-47
2021/04/20 07:23:31;;;;;;;14.43;9.40;;;11.50;99.90;;;;;;5071702;28;20436;-48
2021/04/20 07:26:08;;;;;;;16.03;9.40;;;11.40;99.90;;;;;;5072026;28;20959;-47
2021/04/20 07:28:49;;;;;;;16.57;10.63;;;11.40;99.90;;;;;;5072700;28;20503;-47
2021/04/20 07:31:29;;;;;;;13.97;9.47;;;11.50;99.90;;;;;;5072099;28;20812;-48
2021/04/20 07:34:14;;;;;;;20.33;11.00;;;11.00;99.90;;;;;;5071752;28;20499;-47
2021/04/20 07:36:56;;;;;;;22.53;10.03;;;11.30;99.90;;;;;;5070236;28;20477;-48
2021/04/20 07:39:24;;;;;;;16.30;11.57;;;11.60;99.90;;;;;;5071919;28;21021;-47
2021/04/20 07:41:53;;;;;;;25.00;15.90;;;11.90;99.90;;;;;;5070142;28;20889;-47
2021/04/20 07:44:29;;;;;;;36.13;18.53;;;11.80;99.90;;;;;;5071274;28;20520;-46
2021/04/20 07:46:58;;;;;;;29.73;18.93;;;11.80;99.90;;;;;;5071465;28;20919;-47
2021/04/20 07:49:36;;;;;;;32.77;19.50;;;11.90;99.90;;;;;;5071642;28;20435;-46
2021/04/20 07:52:06;;;;;;;37.17;21.67;;;12.00;99.90;;;;;;5071204;28;20446;-46
2021/04/20 07:54:38;;;;;;;36.73;18.70;;;11.90;99.90;;;;;;5070497;28;20537;-46
2021/04/20 07:57:11;;;;;;;23.57;14.80;;;12.40;99.90;;;;;;5071296;28;20446;-47
2021/04/20 07:59:44;;;;;;;27.77;15.60;;;12.10;99.90;;;;;;5071342;28;20438;-47
2021/04/20 08:02:27;;;;;;;19.77;12.53;;;12.10;99.90;;;;;;5071189;28;20928;-47
2021/04/20 08:05:00;;;;;;;21.20;10.63;;;12.20;99.90;;;;;;5070782;28;20984;-48
2021/04/20 08:07:38;;;;;;;15.87;10.77;;;12.10;99.90;;;;;;5070247;28;20436;-47
2021/04/20 08:10:08;;;;;;;18.53;10.80;;;12.50;99.90;;;;;;5069386;28;20475;-46
2021/04/20 08:12:44;;;;;;;27.33;13.30;;;12.30;99.90;;;;;;5069254;28;20522;-47
2021/04/20 08:15:20;;;;;;;25.87;11.50;;;12.40;99.90;;;;;;5070655;28;20461;-47
2021/04/20 08:17:59;;;;;;;20.40;10.27;;;12.50;99.90;;;;;;5070780;28;20435;-46
2021/04/20 08:20:26;;;;;;;14.30;10.10;;;12.40;99.90;;;;;;5071592;28;20802;-47
2021/04/20 08:22:55;;;;;;;13.60;8.90;;;12.50;99.90;;;;;;5070667;28;20816;-46
2021/04/20 08:25:25;;;;;;;18.80;8.77;;;12.70;99.90;;;;;;5070949;28;20461;-48
2021/04/20 08:27:58;;;;;;;17.83;10.07;;;12.70;99.90;;;;;;5071070;28;20524;-48
2021/04/20 08:30:34;;;;;;;19.60;10.40;;;12.80;99.90;;;;;;5071364;28;20482;-48
2021/04/20 08:33:08;;;;;;;17.87;9.20;;;12.80;99.90;;;;;;5071148;28;20436;-46
2021/04/20 08:35:36;;;;;;;14.30;9.07;;;12.80;99.30;;;;;;5071026;28;20451;-47
2021/04/20 08:38:12;;;;;;;16.53;9.83;;;12.70;99.50;;;;;;5071435;28;20472;-47
2021/04/20 08:40:45;;;;;;;14.90;10.10;;;12.80;99.50;;;;;;5070875;28;20488;-47
2021/04/20 08:43:25;;;;;;;23.90;10.30;;;13.10;99.00;;;;;;5070736;28;20443;-47
2021/04/20 08:45:58;;;;;;;14.63;10.87;;;12.90;98.70;;;;;;5070806;28;20462;-47
2021/04/20 08:48:35;;;;;;;20.30;10.07;;;13.20;98.40;;;;;;5071132;28;20430;-47
2021/04/20 08:51:06;;;;;;;16.50;9.87;;;13.10;98.00;;;;;;5071030;28;20810;-48
2021/04/20 08:53:41;;;;;;;13.53;8.90;;;12.90;97.90;;;;;;5070968;28;20518;-47
2021/04/20 08:56:14;;;;;;;15.23;10.17;;;13.00;97.40;;;;;;5069200;28;20506;-46
2021/04/20 08:58:57;;;;;;;16.23;9.70;;;13.10;97.20;;;;;;5070877;28;20431;-47
2021/04/20 09:01:33;;;;;;;19.60;10.40;;;13.30;97.40;;;;;;5071168;28;20483;-48
2021/04/20 09:04:14;;;;;;;19.37;10.33;;;13.30;97.40;;;;;;5070441;28;20430;-48
2021/04/20 09:06:48;;;;;;;16.13;9.20;;;13.20;97.40;;;;;;5070541;28;20961;-46
2021/04/20 09:09:18;;;;;;;12.90;9.00;;;13.40;97.50;;;;;;5069289;28;20455;-46
2021/04/20 09:11:47;;;;;;;18.53;9.80;;;13.30;97.40;;;;;;5070655;28;20441;-47
2021/04/20 09:14:21;;;;;;;15.20;9.60;;;13.50;97.10;;;;;;5069825;28;20456;-47
2021/04/20 09:16:51;;;;;;;18.00;10.10;;;13.60;97.00;;;;;;5070506;28;20454;-47
2021/04/20 09:19:29;;;;;;;20.50;9.90;;;13.60;96.80;;;;;;5074626;28;20458;-47
2021/04/20 09:22:03;;;;;;;12.17;9.43;;;13.40;96.60;;;;;;5074282;28;20487;-47
2021/04/20 09:24:37;;;;;;;17.40;11.60;;;14.30;96.80;;;;;;5074282;28;20940;-47
2021/04/20 09:27:10;;;;;;;16.90;9.23;;;13.80;96.40;;;;;;5073540;28;20476;-47
2021/04/20 09:29:42;;;;;;;15.90;9.23;;;14.10;96.50;;;;;;5075158;28;20483;-47
2021/04/20 09:32:17;;;;;;;15.30;9.73;;;14.00;96.30;;;;;;5073595;28;20471;-47
2021/04/20 09:34:47;;;;;;;17.30;10.73;;;13.90;96.30;;;;;;5074302;28;20458;-47
2021/04/20 09:37:14;;;;;;;14.03;10.93;;;14.00;96.00;;;;;;5073132;28;20462;-48
2021/04/20 09:39:44;;;;;;;17.37;9.67;;;14.00;96.10;;;;;;5072902;28;20460;-46
2021/04/20 09:42:13;;;;;;;21.17;9.80;;;13.80;95.50;;;;;;5074420;28;20531;-46
2021/04/20 09:44:51;;;;;;;20.70;10.10;;;13.90;95.50;;;;;;5073963;28;20595;-47
2021/04/20 09:47:38;;;;;;;14.23;10.27;;;14.00;95.70;;;;;;5074181;28;20437;-47
2021/04/20 09:50:15;;;;;;;14.87;9.60;;;14.00;95.40;;;;;;5072877;28;20937;-47
2021/04/20 09:52:51;;;;;;;13.13;9.23;;;14.00;95.40;;;;;;5073548;28;20524;-47
2021/04/20 09:55:24;;;;;;;19.27;10.57;;;14.30;95.40;;;;;;5073757;28;20470;-47
2021/04/20 09:57:54;;;;;;;17.90;10.03;;;14.20;95.60;;;;;;5073923;28;20540;-46
2021/04/20 10:00:22;;;;;;;13.43;11.00;;;14.30;95.30;;;;;;5074472;28;20516;-47
2021/04/20 10:02:54;;;;;;;23.00;10.07;;;14.60;94.90;;;;;;5073434;28;20433;-46
2021/04/20 10:05:33;;;;;;;16.93;11.93;;;14.60;94.40;;;;;;5074521;28;20543;-46
2021/04/20 10:08:11;;;;;;;12.57;9.60;;;14.50;94.30;;;;;;5073959;28;20481;-47
2021/04/20 10:10:49;;;;;;;12.30;9.63;;;14.60;94.30;;;;;;5073717;28;20433;-47
2021/04/20 10:13:46;;;;;;;15.33;9.67;;;15.00;93.90;;;;;;5073131;28;20445;-47
2021/04/20 10:16:17;;;;;;;23.50;12.90;;;14.70;93.80;;;;;;5072606;28;21003;-49
2021/04/20 10:18:52;;;;;;;16.20;10.20;;;14.70;93.60;;;;;;5073825;28;20438;-46
2021/04/20 10:21:26;;;;;;;15.17;9.67;;;14.70;93.40;;;;;;5073509;28;20525;-46
2021/04/20 10:24:08;;;;;;;14.23;10.20;;;14.60;93.50;;;;;;5073099;28;20425;-46
2021/04/20 10:26:41;;;;;;;17.10;9.13;;;14.70;93.50;;;;;;5073188;28;20500;-47
2021/04/20 10:29:13;;;;;;;17.93;10.37;;;14.30;93.10;;;;;;5072616;28;20439;-48
2021/04/20 10:31:48;;;;;;;16.37;10.37;;;14.80;93.20;;;;;;5073261;28;20430;-46
2021/04/20 10:34:17;;;;;;;16.73;10.07;;;14.80;92.80;;;;;;5073221;28;20425;-47
2021/04/20 10:36:50;;;;;;;15.60;10.10;;;14.60;92.50;;;;;;5073144;28;20461;-47
2021/04/20 10:39:17;;;;;;;15.20;10.10;;;14.90;92.50;;;;;;5073275;28;20499;-46
2021/04/20 10:41:45;;;;;;;15.07;10.67;;;14.90;91.90;;;;;;5073180;28;20484;-46
2021/04/20 10:44:14;;;;;;;14.73;9.90;;;14.90;92.00;;;;;;5072949;28;20439;-46
2021/04/20 10:46:42;;;;;;;13.40;8.87;;;14.90;91.40;;;;;;5072908;28;20526;-46
2021/04/20 10:49:09;;;;;;;21.90;10.60;;;15.00;91.60;;;;;;5072491;28;20434;-46
2021/04/20 10:51:39;;;;;;;19.10;11.03;;;15.00;91.50;;;;;;5070691;28;20484;-48
2021/04/20 10:54:09;;;;;;;20.60;11.50;;;14.60;91.30;;;;;;5072325;28;20940;-46
2021/04/20 10:56:35;;;;;;;17.60;9.63;;;15.10;91.60;;;;;;5095981;22;20509;-50
2021/04/20 10:59:07;;;;;;;17.27;9.47;;;15.30;91.80;;;;;;5070977;28;20484;-51
2021/04/20 11:01:35;;;;;;;15.97;10.03;;;15.00;91.20;;;;;;5070603;28;20973;-50
2021/04/20 11:04:05;;;;;;;15.00;10.60;;;15.60;90.90;;;;;;5069925;28;20404;-52
2021/04/20 11:07:10;;;;;;;21.03;11.87;;;15.50;90.60;;;;;;5070770;28;20441;-50
2021/04/20 11:09:38;;;;;;;15.93;10.07;;;15.20;90.70;;;;;;5071070;28;20588;-51
2021/04/20 11:12:18;;;;;;;18.50;9.57;;;15.40;90.90;;;;;;5070323;28;20430;-51
2021/04/20 11:14:46;;;;;;;12.40;8.80;;;15.40;90.70;;;;;;5069958;28;20507;-52
2021/04/20 11:17:33;;;;;;;15.00;9.80;;;15.40;90.90;;;;;;5068682;28;20558;-51
2021/04/20 11:20:09;;;;;;;13.03;10.07;;;15.50;90.70;;;;;;5070574;28;20433;-51
2021/04/20 11:22:41;;;;;;;15.17;9.70;;;15.70;90.90;;;;;;5069185;28;20460;-51
2021/04/20 11:25:18;;;;;;;13.03;9.33;;;15.90;90.90;;;;;;5070192;28;20471;-51
2021/04/20 11:27:47;;;;;;;13.67;9.57;;;16.00;90.90;;;;;;5068646;28;20457;-50
2021/04/20 11:30:16;;;;;;;15.83;9.63;;;15.30;90.60;;;;;;5069769;28;20503;-51
2021/04/20 11:32:48;;;;;;;15.67;9.00;;;16.00;89.20;;;;;;5068233;28;20456;-50
2021/04/20 11:35:19;;;;;;;12.63;9.37;;;15.80;87.50;;;;;;5069851;28;20956;-51
2021/04/20 11:37:47;;;;;;;17.00;9.10;;;15.70;87.50;;;;;;5070077;28;20464;-50
2021/04/20 11:40:24;;;;;;;11.27;7.97;;;15.70;88.00;;;;;;5069972;28;20488;-51
2021/04/20 11:42:51;;;;;;;14.37;9.50;;;15.80;88.00;;;;;;5069596;28;20487;-51
2021/04/20 11:45:20;;;;;;;11.47;8.87;;;15.90;87.70;;;;;;5068188;28;20458;-49
2021/04/20 11:47:54;;;;;;;10.10;7.83;;;16.00;86.90;;;;;;5069404;28;20462;-50
2021/04/20 11:50:22;;;;;;;17.40;8.40;;;15.80;86.30;;;;;;5069415;28;20451;-51
2021/04/20 11:52:56;;;;;;;11.27;8.03;;;15.80;85.80;;;;;;5068490;28;20440;-50
2021/04/20 11:55:33;;;;;;;15.73;9.07;;;15.90;85.40;;;;;;5069498;28;20479;-50
2021/04/20 11:58:05;;;;;;;11.03;9.03;;;16.00;86.00;;;;;;5070055;28;20479;-51
2021/04/20 12:00:32;;;;;;;17.70;9.23;;;16.10;85.40;;;;;;5069600;28;20861;-52
2021/04/20 12:03:08;;;;;;;15.77;9.20;;;16.00;84.70;;;;;;5069760;28;20428;-51
2021/04/20 12:05:35;;;;;;;12.03;8.90;;;16.10;84.60;;;;;;5069794;28;20460;-51
2021/04/20 12:08:03;;;;;;;18.37;9.60;;;15.90;85.00;;;;;;5069582;28;20431;-52
2021/04/20 12:10:31;;;;;;;13.10;8.37;;;16.40;85.50;;;;;;5068336;28;20446;-52
2021/04/20 12:12:59;;;;;;;11.43;9.53;;;16.20;84.40;;;;;;5069132;28;20439;-51
2021/04/20 12:15:26;;;;;;;13.50;8.57;;;16.20;84.30;;;;;;5069377;28;20545;-51
2021/04/20 12:17:54;;;;;;;16.17;9.70;;;16.20;84.40;;;;;;5069698;28;20444;-51
2021/04/20 12:20:23;;;;;;;31.70;11.67;;;16.20;84.60;;;;;;5069259;28;20806;-51
2021/04/20 12:22:53;;;;;;;27.73;10.90;;;16.30;84.90;;;;;;5068958;28;20851;-50
2021/04/20 12:25:20;;;;;;;12.60;8.60;;;16.40;85.30;;;;;;5069563;28;20512;-50
2021/04/20 12:27:51;;;;;;;10.20;8.60;;;16.30;85.20;;;;;;5068675;28;20508;-50
2021/04/20 12:30:20;;;;;;;11.63;7.63;;;16.40;83.60;;;;;;5069390;28;20418;-50
2021/04/20 12:32:46;;;;;;;13.00;9.30;;;16.40;82.90;;;;;;5068632;28;20723;-50
2021/04/20 12:35:14;;;;;;;11.70;8.50;;;16.50;82.40;;;;;;5069172;28;20465;-50
2021/04/20 12:37:41;;;;;;;10.77;8.50;;;16.50;83.00;;;;;;5067653;28;20452;-51
2021/04/20 12:40:10;;;;;;;14.33;10.30;;;16.50;83.10;;;;;;5068843;28;20476;-50
2021/04/20 12:42:39;;;;;;;20.93;9.30;;;16.50;83.00;;;;;;5068505;28;20435;-51
2021/04/20 12:45:10;;;;;;;18.23;9.60;;;16.50;82.80;;;;;;5068751;28;20555;-51
2021/04/20 12:47:38;;;;;;;15.03;9.73;;;16.60;82.70;;;;;;5069597;28;20436;-50
2021/04/20 12:50:07;;;;;;;17.37;9.37;;;16.40;82.40;;;;;;5068889;28;20796;-53
2021/04/20 12:52:35;;;;;;;18.23;8.93;;;16.60;82.40;;;;;;5071506;28;20435;-51
2021/04/20 12:55:06;;;;;;;9.77;7.70;;;16.70;82.50;;;;;;5073943;28;20987;-51